Startpagina
METAR-TAF:

METAR-TAF

Vliegvelden :

Nancy, Frankrijk

breedte: 48-35N, lengte: 005-58E, hoogte: 336 m

Actueel weer

Dit bericht is 25 minuten geleden gemaakt, om 07:30 UTC
Wind 14 kt uit het westzuidwesten
Temperatuur 19°C
Vochtigheid 78%
Druk 1019 hPa
Zicht 10 km of meer
Geheel bewolkt op 1800 ft

METAR: LFSO 050730Z AUTO 25014KT 9999 OVC018 19/15 Q1019

Tijdstip: 09:55 (07:55 UTC)

Verwachting

Dit bericht is 23 uur en het 55 minuten geleden gemaakt, om 08:00 UTC
Verwachting geldig van 03 om 09 UTC tot 04 om 09 UTC
Wind 5 kt uit het westen
Zicht 10 km of meer
Gebroken wolken op 3000 ft

TAF: LFSO 030800Z 0309/0409 27005KT 9999 BKN030

Waarnemingen en weersverwachtingen van meer dan 4000 vliegvelden (METAR en TAF).

De beschikbare stations zijn de gele en rode punten op de kaart.

Ga met uw muis naar het station om de naam te zien.

Klik dan om waarnemingen en weersverwachtingen te zien.

kaart wijzigen: klik op de groene knoppen met een zwart kruis om in te zoomen, op de groene knop met een streepje om uit te zoomen of op de groene pijlen voor aangrenzende kaarten.


METAR-TAF: